createdAt,value
2022-09-01T00:01:53.745Z,4.27
2022-09-01T00:04:25.946Z,3.97
2022-09-01T00:06:55.154Z,4.43
2022-09-01T00:09:23.801Z,3.80
2022-09-01T00:11:53.829Z,4.17
2022-09-01T00:14:30.110Z,4.57
2022-09-01T00:17:05.242Z,4.37
2022-09-01T00:19:33.510Z,4.00
2022-09-01T00:22:01.368Z,4.03
2022-09-01T00:24:28.903Z,4.37
2022-09-01T00:26:56.945Z,4.63
2022-09-01T00:29:26.077Z,4.50
2022-09-01T00:31:53.101Z,5.07
2022-09-01T00:34:20.213Z,4.50
2022-09-01T00:36:48.225Z,4.40
2022-09-01T00:39:15.679Z,4.30
2022-09-01T00:41:44.927Z,4.93
2022-09-01T00:44:15.716Z,5.20
2022-09-01T00:46:49.767Z,4.80
2022-09-01T00:49:31.673Z,5.23
2022-09-01T00:52:27.390Z,5.07
2022-09-01T00:55:00.254Z,4.83
2022-09-01T00:57:28.030Z,5.30
2022-09-01T01:00:00.659Z,5.03
2022-09-01T01:02:28.201Z,5.20
2022-09-01T01:04:57.910Z,5.10
2022-09-01T01:07:27.253Z,5.50
2022-09-01T01:09:54.423Z,5.40
2022-09-01T01:12:21.774Z,5.40
2022-09-01T01:14:50.568Z,5.50
2022-09-01T01:17:20.318Z,5.70
2022-09-01T01:20:10.341Z,5.93
2022-09-01T01:23:03.239Z,5.40
2022-09-01T01:25:35.824Z,6.10
2022-09-01T01:28:06.841Z,6.03
2022-09-01T01:30:36.983Z,6.80
2022-09-01T01:33:05.102Z,7.27
2022-09-01T01:35:33.689Z,5.93
2022-09-01T01:38:02.552Z,6.13
2022-09-01T01:40:30.102Z,6.50
2022-09-01T01:42:57.297Z,6.27
2022-09-01T01:45:26.061Z,6.03
2022-09-01T01:47:53.882Z,5.97
2022-09-01T01:50:31.695Z,5.70
2022-09-01T01:53:00.054Z,6.40
2022-09-01T01:55:29.057Z,6.73
2022-09-01T01:57:59.854Z,6.57
2022-09-01T02:00:34.669Z,6.73
2022-09-01T02:03:03.042Z,5.93
2022-09-01T02:05:33.173Z,7.13
2022-09-01T02:08:06.036Z,6.70
2022-09-01T02:10:39.005Z,7.07
2022-09-01T02:13:07.748Z,6.90
2022-09-01T02:15:44.434Z,7.03
2022-09-01T02:18:24.676Z,7.47
2022-09-01T02:20:52.916Z,7.40
2022-09-01T02:23:24.451Z,7.30
2022-09-01T02:26:17.432Z,8.13
2022-09-01T02:28:55.561Z,7.17
2022-09-01T02:31:28.175Z,7.03
2022-09-01T02:33:58.516Z,8.20
2022-09-01T02:36:25.722Z,7.07
2022-09-01T02:38:56.661Z,7.57
2022-09-01T02:41:27.238Z,7.43
2022-09-01T02:43:54.797Z,8.20
2022-09-01T02:46:23.584Z,7.70
2022-09-01T02:48:53.688Z,8.30
2022-09-01T02:51:25.587Z,8.70
2022-09-01T02:53:54.060Z,7.77
2022-09-01T02:56:25.657Z,7.97
2022-09-01T02:58:54.712Z,7.80
2022-09-01T03:01:29.662Z,7.93
2022-09-01T03:04:05.785Z,7.63
2022-09-01T03:06:34.424Z,7.80
2022-09-01T03:09:03.349Z,7.77
2022-09-01T03:11:32.529Z,8.43
2022-09-01T03:13:59.799Z,8.63
2022-09-01T03:16:30.570Z,8.20
2022-09-01T03:18:59.202Z,7.90
2022-09-01T03:21:26.835Z,7.93
2022-09-01T03:23:54.246Z,7.67
2022-09-01T03:26:22.543Z,7.57
2022-09-01T03:28:52.971Z,7.57
2022-09-01T03:31:20.857Z,8.20
2022-09-01T03:33:50.000Z,7.53
2022-09-01T03:36:25.503Z,7.63
2022-09-01T03:38:53.470Z,7.87
2022-09-01T03:41:25.214Z,7.90
2022-09-01T03:43:58.118Z,7.83
2022-09-01T03:46:35.746Z,8.37
2022-09-01T03:49:07.741Z,8.23
2022-09-01T03:51:39.485Z,7.47
2022-09-01T03:54:08.510Z,7.47
2022-09-01T03:56:35.624Z,7.90
2022-09-01T03:59:02.989Z,7.60
2022-09-01T04:01:38.018Z,7.43
2022-09-01T04:04:06.726Z,8.30
2022-09-01T04:06:34.335Z,7.43
2022-09-01T04:09:03.237Z,8.80
2022-09-01T04:11:33.805Z,8.70
2022-09-01T04:14:02.051Z,7.30
2022-09-01T04:16:52.948Z,8.37
2022-09-01T04:19:26.133Z,8.27
2022-09-01T04:21:57.675Z,7.73
2022-09-01T04:24:28.806Z,7.47
2022-09-01T04:26:58.714Z,8.20
2022-09-01T04:29:29.784Z,7.97
2022-09-01T04:32:07.734Z,8.37
2022-09-01T04:34:40.378Z,8.10
2022-09-01T04:37:13.201Z,8.00
2022-09-01T04:39:51.301Z,7.37
2022-09-01T04:42:24.073Z,8.10
2022-09-01T04:44:53.975Z,7.90
2022-09-01T04:47:31.718Z,8.27
2022-09-01T04:50:13.866Z,7.83
2022-09-01T04:52:45.497Z,7.70
2022-09-01T04:55:24.901Z,7.53
2022-09-01T04:57:52.354Z,7.50
2022-09-01T05:00:25.018Z,7.63
2022-09-01T05:03:03.441Z,7.83
2022-09-01T05:05:46.641Z,9.23
2022-09-01T05:08:23.612Z,8.67
2022-09-01T05:10:55.864Z,8.77
2022-09-01T05:13:35.713Z,7.77
2022-09-01T05:16:12.949Z,8.83
2022-09-01T05:18:45.124Z,8.23
2022-09-01T05:21:15.862Z,8.70
2022-09-01T05:23:44.996Z,8.00
2022-09-01T05:26:18.175Z,8.17
2022-09-01T05:28:49.274Z,8.97
2022-09-01T05:31:20.119Z,8.70
2022-09-01T05:33:50.008Z,8.37
2022-09-01T05:36:23.076Z,8.80
2022-09-01T05:38:52.362Z,8.80
2022-09-01T05:41:21.122Z,9.30
2022-09-01T05:43:55.079Z,9.33
2022-09-01T05:46:28.243Z,9.60
2022-09-01T05:48:57.435Z,10.73
2022-09-01T05:51:45.801Z,9.37
2022-09-01T05:54:23.281Z,8.70
2022-09-01T05:56:50.450Z,9.80
2022-09-01T05:59:28.154Z,10.53
2022-09-01T06:02:00.848Z,10.07
2022-09-01T06:04:30.010Z,9.70
2022-09-01T06:07:07.716Z,9.63
2022-09-01T06:09:40.490Z,9.73
2022-09-01T06:12:09.702Z,9.57
2022-09-01T06:14:36.738Z,8.73
2022-09-01T06:17:03.953Z,9.67
2022-09-01T06:19:36.871Z,10.87
2022-09-01T06:22:05.072Z,10.37
2022-09-01T06:24:32.536Z,10.03
2022-09-01T06:26:59.772Z,10.67
2022-09-01T06:29:26.993Z,11.40
2022-09-01T06:31:54.606Z,11.47
2022-09-01T06:34:21.606Z,11.13
2022-09-01T06:36:51.755Z,11.70
2022-09-01T06:39:21.044Z,10.97
2022-09-01T06:41:53.397Z,10.73
2022-09-01T06:44:25.019Z,11.47
2022-09-01T06:47:02.002Z,11.50
2022-09-01T06:49:40.167Z,10.97
2022-09-01T06:52:13.842Z,10.93
2022-09-01T06:54:43.918Z,11.00
2022-09-01T06:59:59.545Z,10.50
2022-09-01T07:02:27.277Z,10.93
2022-09-01T07:08:07.339Z,10.70
2022-09-01T07:19:48.253Z,10.67
2022-09-01T07:22:35.712Z,10.73
2022-09-01T07:25:17.923Z,10.63
2022-09-01T07:28:15.652Z,11.13
2022-09-01T07:30:48.644Z,10.27
2022-09-01T07:42:32.053Z,10.13
2022-09-01T07:48:04.647Z,9.37
2022-09-01T07:50:41.424Z,9.97
2022-09-01T07:53:28.146Z,10.07
2022-09-01T07:55:56.515Z,9.47
2022-09-01T07:58:27.902Z,9.47
2022-09-01T08:01:04.045Z,10.20
2022-09-01T08:03:31.495Z,8.57
2022-09-01T08:06:09.078Z,9.00
2022-09-01T08:08:40.177Z,8.63
2022-09-01T08:11:08.697Z,9.93
2022-09-01T08:13:41.982Z,9.07
2022-09-01T08:16:18.596Z,8.53
2022-09-01T08:18:48.830Z,8.80
2022-09-01T08:21:28.685Z,8.57
2022-09-01T08:24:02.968Z,8.00
2022-09-01T08:26:33.831Z,7.63
2022-09-01T08:29:03.018Z,8.33
2022-09-01T08:31:36.199Z,7.50
2022-09-01T08:34:07.411Z,7.27
2022-09-01T08:36:35.581Z,7.30
2022-09-01T08:39:03.493Z,8.20
2022-09-01T08:41:46.851Z,7.20
2022-09-01T08:44:38.172Z,7.60
2022-09-01T08:47:08.303Z,6.73
2022-09-01T08:49:45.982Z,6.50
2022-09-01T08:52:38.359Z,6.60
2022-09-01T08:55:35.574Z,6.30
2022-09-01T08:58:04.854Z,6.30
2022-09-01T09:01:02.373Z,6.57
2022-09-01T09:03:41.764Z,6.60
2022-09-01T09:06:25.898Z,6.63
2022-09-01T09:09:05.033Z,6.20
2022-09-01T09:11:54.026Z,5.77
2022-09-01T09:14:47.843Z,6.03
2022-09-01T09:17:19.942Z,6.47
2022-09-01T09:19:46.966Z,5.47
2022-09-01T09:22:16.700Z,6.27
2022-09-01T09:25:19.150Z,5.87
2022-09-01T09:28:00.780Z,5.47
2022-09-01T09:30:29.700Z,4.77
2022-09-01T09:35:51.460Z,4.63
2022-09-01T09:38:28.756Z,4.60
2022-09-01T09:43:49.933Z,4.23
2022-09-01T09:46:32.029Z,3.80
2022-09-01T09:49:34.358Z,4.00
2022-09-01T09:52:10.323Z,3.73
2022-09-01T09:54:40.048Z,3.97
2022-09-01T09:57:16.341Z,4.03
2022-09-01T10:00:02.977Z,3.65
2022-09-01T10:02:43.172Z,4.38
2022-09-01T10:05:52.002Z,4.40
2022-09-01T10:08:37.430Z,4.40
2022-09-01T10:11:08.133Z,3.93
2022-09-01T10:13:36.684Z,4.37
2022-09-01T10:16:10.485Z,4.10
2022-09-01T10:18:42.159Z,4.23
2022-09-01T10:21:17.185Z,5.10
2022-09-01T10:23:44.948Z,4.37
2022-09-01T10:26:32.143Z,4.37
2022-09-01T10:29:15.857Z,4.10
2022-09-01T10:31:43.469Z,4.40
2022-09-01T10:34:19.368Z,5.00
2022-09-01T10:36:54.941Z,4.50
2022-09-01T10:39:29.476Z,4.70
2022-09-01T10:42:07.547Z,4.17
2022-09-01T10:44:55.267Z,4.13
2022-09-01T10:47:33.667Z,3.77
2022-09-01T10:50:24.421Z,4.20
2022-09-01T10:53:04.993Z,4.13
2022-09-01T10:55:44.072Z,3.77
2022-09-01T11:01:49.586Z,3.20
2022-09-01T11:04:40.140Z,3.33
2022-09-01T11:07:50.704Z,4.13
2022-09-01T11:10:50.103Z,4.10
2022-09-01T11:13:31.796Z,4.10
2022-09-01T11:19:17.953Z,4.03
2022-09-01T11:21:45.079Z,3.87
2022-09-01T11:24:44.236Z,3.80
2022-09-01T11:27:33.596Z,4.03
2022-09-01T11:30:07.693Z,3.70
2022-09-01T11:32:38.263Z,3.85
2022-09-01T11:35:18.328Z,3.70
2022-09-01T11:37:49.314Z,3.85
2022-09-01T11:40:32.768Z,3.45
2022-09-01T11:43:16.198Z,3.83
2022-09-01T11:46:15.939Z,3.20
2022-09-01T11:48:51.798Z,3.10
2022-09-01T11:51:21.455Z,3.28
2022-09-01T11:53:50.435Z,3.25
2022-09-01T11:56:24.693Z,3.53
2022-09-01T11:58:51.856Z,3.63
2022-09-01T12:01:43.798Z,3.63
2022-09-01T12:04:38.022Z,3.97
2022-09-01T12:07:10.861Z,3.63
2022-09-01T12:09:44.414Z,3.67
2022-09-01T12:12:38.939Z,3.43
2022-09-01T12:15:18.841Z,3.80
2022-09-01T12:17:47.438Z,3.00
2022-09-01T12:20:29.497Z,3.25
2022-09-01T12:22:58.895Z,3.30
2022-09-01T12:25:31.921Z,3.72
2022-09-01T12:28:06.245Z,3.53
2022-09-01T12:30:39.658Z,3.47
2022-09-01T12:33:25.042Z,3.17
2022-09-01T12:35:55.021Z,3.08
2022-09-01T12:38:26.004Z,2.67
2022-09-01T12:40:55.357Z,3.00
2022-09-01T12:43:29.613Z,3.28
2022-09-01T12:45:59.984Z,3.05
2022-09-01T12:48:29.764Z,2.80
2022-09-01T12:51:01.194Z,2.65
2022-09-01T12:53:32.495Z,2.72
2022-09-01T12:56:22.789Z,3.10
2022-09-01T12:58:53.972Z,2.50
2022-09-01T13:01:32.393Z,2.30
2022-09-01T13:04:20.631Z,2.28
2022-09-01T13:06:49.764Z,2.05
2022-09-01T13:09:16.866Z,2.30
2022-09-01T13:14:31.880Z,2.28
2022-09-01T13:16:59.199Z,2.70
2022-09-01T13:19:28.675Z,2.60
2022-09-01T13:21:57.558Z,2.38
2022-09-01T13:24:28.548Z,2.38
2022-09-01T13:29:45.646Z,3.10
2022-09-01T13:32:21.303Z,2.53
2022-09-01T13:34:51.801Z,2.63
2022-09-01T13:37:21.350Z,2.67
2022-09-01T13:39:48.721Z,3.33
2022-09-01T13:42:16.496Z,3.50
2022-09-01T13:44:44.247Z,3.30
2022-09-01T13:50:09.661Z,2.90
2022-09-01T13:52:43.194Z,2.70
2022-09-01T13:55:16.494Z,2.90
2022-09-01T13:57:43.686Z,3.10
2022-09-01T14:00:15.710Z,2.80
2022-09-01T14:02:53.138Z,2.78
2022-09-01T14:05:24.018Z,2.70
2022-09-01T14:07:51.803Z,2.92
2022-09-01T14:10:20.302Z,2.55
2022-09-01T14:12:48.410Z,2.40
2022-09-01T14:15:19.905Z,2.92
2022-09-01T14:17:52.423Z,2.58
2022-09-01T14:20:22.213Z,2.58
2022-09-01T14:22:50.688Z,2.97
2022-09-01T14:25:20.341Z,2.60
2022-09-01T14:27:48.966Z,2.50
2022-09-01T14:30:20.478Z,2.70
2022-09-01T14:32:48.477Z,2.50
2022-09-01T14:35:16.931Z,2.40
2022-09-01T14:37:45.636Z,2.30
2022-09-01T14:40:18.226Z,2.40
2022-09-01T14:42:49.296Z,2.72
2022-09-01T14:45:22.604Z,2.92
2022-09-01T14:47:53.398Z,2.40
2022-09-01T14:50:23.188Z,2.60
2022-09-01T14:52:53.598Z,2.30
2022-09-01T14:55:25.511Z,2.15
2022-09-01T14:57:52.934Z,2.67
2022-09-01T15:00:20.253Z,2.75
2022-09-01T15:02:48.185Z,2.47
2022-09-01T15:05:15.909Z,2.65
2022-09-01T15:07:43.885Z,2.40
2022-09-01T15:10:15.944Z,2.30
2022-09-01T15:12:51.970Z,2.40
2022-09-01T15:15:19.178Z,2.08
2022-09-01T15:17:46.681Z,2.35
2022-09-01T15:20:32.666Z,2.40
2022-09-01T15:23:00.972Z,2.23
2022-09-01T15:25:28.001Z,2.35
2022-09-01T15:27:55.095Z,2.47
2022-09-01T15:30:22.110Z,2.10
2022-09-01T15:32:51.338Z,2.50
2022-09-01T15:35:19.429Z,2.40
2022-09-01T15:37:47.902Z,2.53
2022-09-01T15:40:16.118Z,2.57
2022-09-01T15:42:43.198Z,2.40
2022-09-01T15:45:14.849Z,2.27
2022-09-01T15:47:45.635Z,2.47
2022-09-01T15:50:18.342Z,2.73
2022-09-01T15:52:49.868Z,2.43
2022-09-01T15:55:19.676Z,2.50
2022-09-01T15:57:47.137Z,2.70
2022-09-01T16:00:15.108Z,2.60
2022-09-01T16:02:43.068Z,2.63
2022-09-01T16:05:10.598Z,2.90
2022-09-01T16:07:37.789Z,2.10
2022-09-01T16:10:06.293Z,2.53
2022-09-01T16:12:35.769Z,2.23
2022-09-01T16:15:03.674Z,2.50
2022-09-01T16:17:51.127Z,2.40
2022-09-01T16:20:28.530Z,2.30
2022-09-01T16:22:58.497Z,2.20
2022-09-01T16:25:33.342Z,2.40
2022-09-01T16:28:07.325Z,2.17
2022-09-01T16:30:34.994Z,2.20
2022-09-01T16:33:04.224Z,2.80
2022-09-01T16:35:44.857Z,2.60
2022-09-01T16:38:25.049Z,3.10
2022-09-01T16:41:09.636Z,2.30
2022-09-01T16:43:48.678Z,2.20
2022-09-01T16:46:23.424Z,2.23
2022-09-01T16:48:58.358Z,2.10
2022-09-01T16:51:39.093Z,2.23
2022-09-01T16:54:20.934Z,2.37
2022-09-01T16:56:48.058Z,2.40
2022-09-01T16:59:37.837Z,2.70
2022-09-01T17:02:15.911Z,2.27
2022-09-01T17:05:03.046Z,2.70
2022-09-01T17:07:47.530Z,2.50
2022-09-01T17:10:33.427Z,2.40
2022-09-01T17:13:16.544Z,2.30
2022-09-01T17:15:48.105Z,2.40
2022-09-01T17:18:29.704Z,2.10
2022-09-01T17:21:07.466Z,2.00
2022-09-01T17:23:40.849Z,2.37
2022-09-01T17:26:17.162Z,2.20
2022-09-01T17:28:55.470Z,2.37
2022-09-01T17:31:33.969Z,2.60
2022-09-01T17:34:18.672Z,2.03
2022-09-01T17:36:56.384Z,2.40
2022-09-01T17:40:00.540Z,2.53
2022-09-01T17:42:42.117Z,2.23
2022-09-01T17:45:29.029Z,2.70
2022-09-01T17:48:20.750Z,2.27
2022-09-01T17:51:25.674Z,2.33
2022-09-01T17:54:37.079Z,2.60
2022-09-01T17:57:32.015Z,2.47
2022-09-01T18:00:22.993Z,2.40
2022-09-01T18:02:58.908Z,2.43
2022-09-01T18:05:27.260Z,2.20
2022-09-01T18:08:40.273Z,2.40
2022-09-01T18:11:21.526Z,2.70
2022-09-01T18:13:53.169Z,2.73
2022-09-01T18:16:31.515Z,2.53
2022-09-01T18:19:05.605Z,2.30
2022-09-01T18:21:40.075Z,2.73
2022-09-01T18:24:43.872Z,2.60
2022-09-01T18:27:12.854Z,2.20
2022-09-01T18:29:40.634Z,2.20
2022-09-01T18:32:12.385Z,2.50
2022-09-01T18:35:02.510Z,2.33
2022-09-01T18:38:27.614Z,2.57
2022-09-01T18:41:32.210Z,2.30
2022-09-01T18:44:15.918Z,2.70
2022-09-01T18:46:53.964Z,2.03
2022-09-01T18:49:46.646Z,2.80
2022-09-01T18:52:22.512Z,2.50
2022-09-01T18:55:10.670Z,2.53
2022-09-01T18:57:39.989Z,2.80
2022-09-01T19:00:22.026Z,2.63
2022-09-01T19:03:01.866Z,2.47
2022-09-01T19:05:38.315Z,2.87
2022-09-01T19:08:34.791Z,2.40
2022-09-01T19:11:06.894Z,2.57
2022-09-01T19:13:53.286Z,2.80
2022-09-01T19:16:55.329Z,2.70
2022-09-01T19:19:46.698Z,3.20
2022-09-01T19:22:23.405Z,3.70
2022-09-01T19:25:19.701Z,2.50
2022-09-01T19:27:59.662Z,2.80
2022-09-01T19:30:26.826Z,2.93
2022-09-01T19:32:54.495Z,2.90
2022-09-01T19:35:21.986Z,2.73
2022-09-01T19:37:51.225Z,2.77
2022-09-01T19:40:27.362Z,2.87
2022-09-01T19:43:17.687Z,3.40
2022-09-01T19:45:46.160Z,2.60
2022-09-01T19:48:18.446Z,2.70
2022-09-01T19:50:48.886Z,3.30
2022-09-01T19:53:27.265Z,3.13
2022-09-01T19:56:01.079Z,2.77
2022-09-01T19:58:44.028Z,2.63
2022-09-01T20:01:15.945Z,2.90
2022-09-01T20:03:53.604Z,3.07
2022-09-01T20:06:29.477Z,2.73
2022-09-01T20:09:15.305Z,3.27
2022-09-01T20:11:55.715Z,3.17
2022-09-01T20:14:41.829Z,2.73
2022-09-01T20:17:30.784Z,3.00
2022-09-01T20:20:14.862Z,3.23
2022-09-01T20:22:41.826Z,3.20
2022-09-01T20:25:17.953Z,3.10
2022-09-01T20:27:56.109Z,3.60
2022-09-01T20:30:31.196Z,3.07
2022-09-01T20:33:08.749Z,3.30
2022-09-01T20:35:44.399Z,3.20
2022-09-01T20:38:42.233Z,3.57
2022-09-01T20:41:20.050Z,3.60
2022-09-01T20:43:51.795Z,3.53
2022-09-01T20:46:20.602Z,3.40
2022-09-01T20:48:48.205Z,3.80
2022-09-01T20:51:20.593Z,3.50
2022-09-01T20:54:18.455Z,3.53
2022-09-01T20:57:09.624Z,3.77
2022-09-01T21:00:22.570Z,3.57
2022-09-01T21:03:10.025Z,3.67
2022-09-01T21:05:56.573Z,4.00
2022-09-01T21:09:01.253Z,3.67
2022-09-01T21:11:52.495Z,3.60
2022-09-01T21:14:38.481Z,3.73
2022-09-01T21:17:39.680Z,3.70
2022-09-01T21:20:09.835Z,3.50
2022-09-01T21:22:36.830Z,3.67
2022-09-01T21:25:04.756Z,3.97
2022-09-01T21:27:40.174Z,3.40
2022-09-01T21:30:14.065Z,3.60
2022-09-01T21:32:41.815Z,3.70
2022-09-01T21:35:13.261Z,3.77
2022-09-01T21:37:41.001Z,3.67
2022-09-01T21:40:09.211Z,3.83
2022-09-01T21:42:41.093Z,3.80
2022-09-01T21:45:12.080Z,3.50
2022-09-01T21:47:40.036Z,4.33
2022-09-01T21:50:07.858Z,3.57
2022-09-01T21:52:34.865Z,3.83
2022-09-01T21:55:01.968Z,3.83
2022-09-01T21:57:28.887Z,4.23
2022-09-01T21:59:55.842Z,4.20
2022-09-01T22:02:22.822Z,3.90
2022-09-01T22:04:56.231Z,4.13
2022-09-01T22:07:23.110Z,4.40
2022-09-01T22:09:50.372Z,4.10
2022-09-01T22:12:17.273Z,4.67
2022-09-01T22:14:44.477Z,4.20
2022-09-01T22:17:11.423Z,4.70
2022-09-01T22:19:38.529Z,4.17
2022-09-01T22:22:05.513Z,4.27
2022-09-01T22:24:32.799Z,4.00
2022-09-01T22:26:59.854Z,4.83
2022-09-01T22:29:27.280Z,4.50
2022-09-01T22:31:54.216Z,3.93
2022-09-01T22:34:21.112Z,4.73
2022-09-01T22:36:49.766Z,4.40
2022-09-01T22:39:19.397Z,4.40
2022-09-01T22:41:48.945Z,4.70
2022-09-01T22:44:16.006Z,4.37
2022-09-01T22:46:43.216Z,4.67
2022-09-01T22:49:10.713Z,4.23
2022-09-01T22:51:42.439Z,4.80
2022-09-01T22:54:10.973Z,4.67
2022-09-01T22:56:39.501Z,4.60
2022-09-01T22:59:10.991Z,4.77
2022-09-01T23:01:42.435Z,4.60
2022-09-01T23:04:34.745Z,4.80
2022-09-01T23:07:01.744Z,4.40
2022-09-01T23:09:29.429Z,4.60
2022-09-01T23:11:56.717Z,5.20
2022-09-01T23:14:23.703Z,4.97
2022-09-01T23:16:51.849Z,4.60
2022-09-01T23:19:20.790Z,4.80
2022-09-01T23:21:48.313Z,4.80
2022-09-01T23:24:16.296Z,5.23
2022-09-01T23:26:47.559Z,5.70
2022-09-01T23:29:14.622Z,4.70
2022-09-01T23:31:43.674Z,4.67
2022-09-01T23:34:10.655Z,5.30
2022-09-01T23:36:37.611Z,5.20
2022-09-01T23:39:05.810Z,5.50
2022-09-01T23:41:34.891Z,4.83
2022-09-01T23:44:04.449Z,4.17
2022-09-01T23:46:36.966Z,4.67
2022-09-01T23:49:04.952Z,4.60
2022-09-01T23:51:31.957Z,4.63
2022-09-01T23:53:59.668Z,5.33
2022-09-01T23:56:28.384Z,4.57
2022-09-01T23:58:56.092Z,4.60
